Time;durP1;ratioP1;P1;durP2;ratioP2;P2;SDS_P1;SDS_P2;PMS_P1;PMS_P2;Temp;Humidity;BMP_temperature;BMP_pressure;BME280_temperature;BME280_humidity;BME280_pressure;Samples;Min_cycle;Max_cycle;Signal;HPM_P1;HPM_P2
2023/06/16 00:01:05;;;;;;;8.55;5.38;;;15.60;99.90;;;;;;5057001;28;20057;-77
2023/06/16 00:03:34;;;;;;;7.88;5.28;;;15.60;99.90;;;;;;5038646;28;20083;-78
2023/06/16 00:06:13;;;;;;;8.50;5.85;;;15.60;99.90;;;;;;5032292;28;20079;-79
2023/06/16 00:08:54;;;;;;;7.93;5.75;;;15.50;99.90;;;;;;5053061;28;20051;-78
2023/06/16 00:11:20;;;;;;;7.25;5.95;;;15.50;99.90;;;;;;5037184;28;20750;-78
2023/06/16 00:13:47;;;;;;;10.63;6.32;;;15.50;99.90;;;;;;5036592;28;20053;-78
2023/06/16 00:16:19;;;;;;;11.02;7.10;;;15.60;99.90;;;;;;5009263;28;20050;-78
2023/06/16 00:18:45;;;;;;;8.90;5.70;;;15.50;99.90;;;;;;5029404;28;20049;-78
2023/06/16 00:21:19;;;;;;;10.02;5.90;;;15.60;99.90;;;;;;5054879;28;20044;-78
2023/06/16 00:23:45;;;;;;;7.82;5.95;;;15.50;99.90;;;;;;5008376;28;20069;-78
2023/06/16 00:26:12;;;;;;;8.02;6.15;;;15.50;99.90;;;;;;5024971;28;20040;-78
2023/06/16 00:28:41;;;;;;;11.73;7.25;;;15.40;99.90;;;;;;5034709;28;20064;-77
2023/06/16 00:31:06;;;;;;;9.35;7.20;;;15.40;99.90;;;;;;5036058;28;20407;-78
2023/06/16 00:33:32;;;;;;;8.00;6.75;;;15.40;99.90;;;;;;5021795;28;20116;-77
2023/06/16 00:35:58;;;;;;;9.32;6.85;;;15.40;99.90;;;;;;5042288;28;20036;-78
2023/06/16 00:38:23;;;;;;;9.48;6.95;;;15.40;99.90;;;;;;5043531;28;20478;-79
2023/06/16 00:40:49;;;;;;;8.05;6.55;;;15.50;99.90;;;;;;5035947;28;20075;-79
2023/06/16 00:43:15;;;;;;;7.93;6.10;;;15.50;99.90;;;;;;5021625;28;20037;-78
2023/06/16 00:45:41;;;;;;;7.57;6.35;;;15.40;99.90;;;;;;5040184;28;20109;-78
2023/06/16 00:48:06;;;;;;;8.15;5.93;;;15.40;99.90;;;;;;5056068;28;20060;-78
2023/06/16 00:50:32;;;;;;;9.68;5.85;;;15.40;99.90;;;;;;5037595;28;20857;-79
2023/06/16 00:52:59;;;;;;;7.05;5.70;;;15.40;99.90;;;;;;5020066;28;20502;-78
2023/06/16 00:55:25;;;;;;;10.07;6.22;;;15.30;99.90;;;;;;5019747;28;20057;-79
2023/06/16 00:57:55;;;;;;;7.32;5.85;;;15.30;99.90;;;;;;5054020;28;20072;-79
2023/06/16 01:00:21;;;;;;;8.95;6.35;;;15.20;99.90;;;;;;5037818;28;20127;-78
2023/06/16 01:02:48;;;;;;;7.68;6.13;;;15.30;99.90;;;;;;5008759;28;20045;-78
2023/06/16 01:05:17;;;;;;;10.27;6.82;;;15.30;99.90;;;;;;4994311;28;20104;-78
2023/06/16 01:08:11;;;;;;;9.25;6.03;;;15.40;99.90;;;;;;5020805;28;20463;-78
2023/06/16 01:11:00;;;;;;;8.07;7.10;;;15.40;99.90;;;;;;5050456;28;20052;-78
2023/06/16 01:13:33;;;;;;;8.35;6.25;;;15.40;99.90;;;;;;5037285;28;20112;-78
2023/06/16 01:16:01;;;;;;;10.30;7.07;;;15.40;99.90;;;;;;5036417;28;20083;-79
2023/06/16 01:18:29;;;;;;;8.23;6.55;;;15.40;99.90;;;;;;5037005;28;20040;-78
2023/06/16 01:20:57;;;;;;;8.27;7.03;;;15.40;99.90;;;;;;5030412;28;20045;-77
2023/06/16 01:23:55;;;;;;;10.25;7.05;;;15.40;99.90;;;;;;5015228;28;20037;-79
2023/06/16 01:26:22;;;;;;;7.60;6.55;;;15.50;99.90;;;;;;5037260;28;20155;-78
2023/06/16 01:28:49;;;;;;;8.18;6.38;;;15.40;99.90;;;;;;5022714;28;20049;-79
2023/06/16 01:31:17;;;;;;;7.10;6.40;;;15.30;99.90;;;;;;5024555;28;20051;-78
2023/06/16 01:33:45;;;;;;;9.45;6.78;;;15.30;99.90;;;;;;5037296;28;20045;-78
2023/06/16 01:36:12;;;;;;;8.85;6.80;;;15.30;99.90;;;;;;5036178;28;20049;-79
2023/06/16 01:38:39;;;;;;;8.68;7.00;;;15.20;99.90;;;;;;5015635;28;20049;-78
2023/06/16 01:41:06;;;;;;;9.93;7.53;;;15.20;99.90;;;;;;5057778;28;20079;-78
2023/06/16 01:43:34;;;;;;;8.75;6.97;;;15.20;99.90;;;;;;5062724;28;20072;-78
2023/06/16 01:46:00;;;;;;;7.70;6.60;;;15.20;99.90;;;;;;5018283;28;20049;-79
2023/06/16 01:48:26;;;;;;;11.82;7.40;;;15.20;99.90;;;;;;5029962;28;20063;-78
2023/06/16 01:50:52;;;;;;;9.23;6.88;;;15.20;99.90;;;;;;5010204;28;20051;-77
2023/06/16 01:53:18;;;;;;;7.60;6.10;;;15.20;99.90;;;;;;5034108;28;20056;-78
2023/06/16 01:55:51;;;;;;;6.88;5.53;;;15.10;99.90;;;;;;5021176;28;20657;-78
2023/06/16 01:58:19;;;;;;;7.05;5.32;;;15.10;99.90;;;;;;5033017;28;20107;-78
2023/06/16 02:01:05;;;;;;;6.38;4.93;;;15.00;99.90;;;;;;5035602;28;20056;-77
2023/06/16 02:03:36;;;;;;;8.55;4.80;;;14.90;99.90;;;;;;5006780;28;20370;-78
2023/06/16 02:06:08;;;;;;;5.55;4.68;;;14.80;99.90;;;;;;5030805;28;20045;-78
2023/06/16 02:08:36;;;;;;;5.28;4.78;;;14.80;99.90;;;;;;5020018;28;20103;-78
2023/06/16 02:11:03;;;;;;;5.95;4.85;;;14.70;99.90;;;;;;5040510;28;20036;-77
2023/06/16 02:13:29;;;;;;;8.43;5.18;;;14.60;99.90;;;;;;5055182;28;20076;-79
2023/06/16 02:15:55;;;;;;;5.38;4.53;;;14.50;99.90;;;;;;5015600;28;20072;-78
2023/06/16 02:18:24;;;;;;;7.90;4.90;;;14.50;99.90;;;;;;5034600;28;20045;-78
2023/06/16 02:20:49;;;;;;;6.15;4.82;;;14.40;99.90;;;;;;5016655;28;20056;-79
2023/06/16 02:23:16;;;;;;;10.13;7.07;;;14.40;99.90;;;;;;5044584;28;20049;-79
2023/06/16 02:25:41;;;;;;;6.97;6.18;;;14.40;99.90;;;;;;5053574;28;20095;-78
2023/06/16 02:28:07;;;;;;;8.35;6.05;;;14.40;99.90;;;;;;5014859;28;20057;-78
2023/06/16 02:30:33;;;;;;;10.02;7.13;;;14.40;99.90;;;;;;5020414;28;20044;-78
2023/06/16 02:32:58;;;;;;;6.97;6.28;;;14.30;99.90;;;;;;5021444;28;20053;-78
2023/06/16 02:35:24;;;;;;;11.48;7.85;;;14.20;99.90;;;;;;5032974;28;20069;-78
2023/06/16 02:37:53;;;;;;;8.50;7.38;;;14.20;99.90;;;;;;5063591;28;20104;-79
2023/06/16 02:40:20;;;;;;;8.65;7.43;;;14.20;99.90;;;;;;5018465;28;20045;-78
2023/06/16 02:42:47;;;;;;;11.55;9.40;;;14.20;99.90;;;;;;5020322;28;20052;-78
2023/06/16 02:45:12;;;;;;;9.13;8.20;;;14.20;99.90;;;;;;5044665;28;20532;-78
2023/06/16 02:47:39;;;;;;;9.95;7.53;;;14.20;99.90;;;;;;5036176;28;20052;-79
2023/06/16 02:50:06;;;;;;;11.50;10.07;;;14.20;99.90;;;;;;5008969;28;20054;-78
2023/06/16 02:52:32;;;;;;;10.45;8.95;;;14.20;99.90;;;;;;5035078;28;20065;-79
2023/06/16 02:54:58;;;;;;;12.88;10.18;;;14.20;99.90;;;;;;5020054;28;20085;-78
2023/06/16 02:57:24;;;;;;;12.75;11.20;;;14.20;99.90;;;;;;5034618;28;20045;-79
2023/06/16 02:59:50;;;;;;;12.57;10.32;;;14.40;99.90;;;;;;5029514;28;20103;-78
2023/06/16 03:02:15;;;;;;;14.20;11.13;;;14.40;99.90;;;;;;5032617;28;20033;-78
2023/06/16 03:04:41;;;;;;;12.38;11.07;;;14.40;99.90;;;;;;5037329;28;20076;-78
2023/06/16 03:07:07;;;;;;;14.15;10.85;;;14.50;99.90;;;;;;5019826;28;20053;-78
2023/06/16 03:09:33;;;;;;;14.30;11.48;;;14.60;99.90;;;;;;5034131;28;20041;-79
2023/06/16 03:11:59;;;;;;;12.48;11.27;;;14.60;99.90;;;;;;5019204;28;20375;-79
2023/06/16 03:14:26;;;;;;;13.32;11.35;;;14.70;99.90;;;;;;5024367;28;20095;-78
2023/06/16 03:16:52;;;;;;;18.08;12.02;;;14.70;99.90;;;;;;5033090;28;20492;-78
2023/06/16 03:19:21;;;;;;;15.88;12.18;;;14.70;99.90;;;;;;5034585;28;20416;-79
2023/06/16 03:21:50;;;;;;;13.25;11.43;;;14.70;99.90;;;;;;5033967;28;20045;-79
2023/06/16 03:24:19;;;;;;;14.77;11.77;;;14.70;99.90;;;;;;5033869;28;20058;-78
2023/06/16 03:26:45;;;;;;;17.02;12.63;;;14.70;99.90;;;;;;5044157;28;20067;-77
2023/06/16 03:29:14;;;;;;;14.25;12.50;;;14.70;99.90;;;;;;5036200;28;20049;-76
2023/06/16 03:31:39;;;;;;;13.77;12.30;;;14.80;99.90;;;;;;5048399;28;20041;-78
2023/06/16 03:34:05;;;;;;;12.82;11.52;;;15.00;99.90;;;;;;5031744;28;20126;-77
2023/06/16 03:36:39;;;;;;;16.00;12.20;;;15.00;99.90;;;;;;5037099;28;20455;-77
2023/06/16 03:39:05;;;;;;;13.93;12.02;;;15.10;99.90;;;;;;5038631;28;20047;-78
2023/06/16 03:41:33;;;;;;;13.32;11.93;;;15.20;99.90;;;;;;5036282;28;20045;-77
2023/06/16 03:43:58;;;;;;;13.93;12.23;;;15.40;99.90;;;;;;5036246;28;20047;-77
2023/06/16 03:46:24;;;;;;;13.70;12.23;;;15.60;99.90;;;;;;5019186;28;20057;-78
2023/06/16 03:48:50;;;;;;;16.25;12.93;;;15.90;99.90;;;;;;4997588;28;20054;-78
2023/06/16 03:51:16;;;;;;;14.73;13.18;;;16.00;99.90;;;;;;5018637;28;20112;-78
2023/06/16 03:53:42;;;;;;;14.38;12.82;;;15.90;99.90;;;;;;5026823;28;20062;-79
2023/06/16 03:56:08;;;;;;;13.18;11.85;;;15.90;99.90;;;;;;5017591;28;20160;-78
2023/06/16 03:58:34;;;;;;;13.95;12.48;;;15.90;99.90;;;;;;5012781;28;20049;-78
2023/06/16 04:01:00;;;;;;;14.60;12.30;;;15.90;99.90;;;;;;5017957;28;20041;-78
2023/06/16 04:03:26;;;;;;;8.02;6.82;;;15.90;99.90;;;;;;5016783;28;20130;-78
2023/06/16 04:05:53;;;;;;;8.43;6.10;;;15.90;99.90;;;;;;5015364;28;20172;-78
2023/06/16 04:08:20;;;;;;;6.25;5.38;;;15.80;99.90;;;;;;5017039;28;20261;-78
2023/06/16 04:10:46;;;;;;;12.70;8.00;;;15.70;99.90;;;;;;5013560;28;20759;-78
2023/06/16 04:13:12;;;;;;;8.52;6.43;;;15.70;99.90;;;;;;5017368;28;20034;-79
2023/06/16 04:15:37;;;;;;;8.73;6.15;;;15.70;99.90;;;;;;5006336;28;20037;-77
2023/06/16 04:18:03;;;;;;;8.00;6.10;;;15.70;99.90;;;;;;4995108;28;20101;-79
2023/06/16 04:20:29;;;;;;;6.85;6.15;;;15.70;99.90;;;;;;5015822;28;20459;-78
2023/06/16 04:22:55;;;;;;;7.93;6.68;;;15.70;99.90;;;;;;5027094;28;20127;-79
2023/06/16 04:25:22;;;;;;;11.43;9.93;;;15.70;99.90;;;;;;5028300;28;20039;-79
2023/06/16 04:27:49;;;;;;;10.23;6.13;;;15.60;99.90;;;;;;5030277;28;20561;-78
2023/06/16 04:30:20;;;;;;;8.38;6.72;;;15.70;99.90;;;;;;5016205;28;20049;-78
2023/06/16 04:32:46;;;;;;;11.25;9.45;;;15.80;99.90;;;;;;5011370;28;20062;-78
2023/06/16 04:35:11;;;;;;;7.65;5.90;;;15.80;99.90;;;;;;5023594;28;20076;-78
2023/06/16 04:37:38;;;;;;;9.35;6.82;;;15.80;99.90;;;;;;4999775;28;20049;-78
2023/06/16 04:40:08;;;;;;;8.88;7.55;;;15.80;99.90;;;;;;5013886;28;20057;-78
2023/06/16 04:42:35;;;;;;;10.25;7.13;;;15.80;99.90;;;;;;5015474;28;20594;-78
2023/06/16 04:45:00;;;;;;;12.60;7.60;;;15.90;99.90;;;;;;5023881;28;20045;-78
2023/06/16 04:47:27;;;;;;;9.15;7.72;;;16.00;99.90;;;;;;5015508;28;20077;-78
2023/06/16 04:49:53;;;;;;;10.40;9.15;;;16.30;99.90;;;;;;5015015;28;20053;-77
2023/06/16 04:52:19;;;;;;;13.77;9.02;;;16.40;99.90;;;;;;5007704;28;21576;-78
2023/06/16 04:54:45;;;;;;;12.85;11.45;;;16.40;99.90;;;;;;5038059;28;20057;-78
2023/06/16 04:57:11;;;;;;;13.73;12.23;;;16.30;99.90;;;;;;5019898;28;20044;-78
2023/06/16 04:59:37;;;;;;;16.23;14.35;;;16.20;99.90;;;;;;5022400;28;20033;-78
2023/06/16 05:02:03;;;;;;;15.02;13.18;;;16.20;99.90;;;;;;5031272;28;20046;-78
2023/06/16 05:04:29;;;;;;;15.90;13.95;;;16.20;99.90;;;;;;5045673;28;20047;-78
2023/06/16 05:06:54;;;;;;;18.17;14.23;;;16.20;99.90;;;;;;5020341;28;20049;-79
2023/06/16 05:09:23;;;;;;;16.83;14.43;;;16.20;99.90;;;;;;5011305;28;20185;-79
2023/06/16 05:11:49;;;;;;;16.50;14.65;;;16.20;99.90;;;;;;5046912;28;20183;-84
2023/06/16 05:14:15;;;;;;;17.75;15.35;;;16.20;99.90;;;;;;5020568;28;20048;-82
2023/06/16 05:16:40;;;;;;;15.98;14.27;;;16.20;99.90;;;;;;5033938;28;20064;-80
2023/06/16 05:19:06;;;;;;;18.33;14.45;;;16.20;99.90;;;;;;5032722;28;20068;-81
2023/06/16 05:21:32;;;;;;;18.13;15.20;;;16.30;99.90;;;;;;5000553;28;20843;-80
2023/06/16 05:23:57;;;;;;;18.10;14.07;;;16.30;99.90;;;;;;5003125;28;20044;-81
2023/06/16 05:26:23;;;;;;;17.77;15.88;;;16.40;99.90;;;;;;5009068;28;20029;-81
2023/06/16 05:28:49;;;;;;;17.90;15.98;;;16.40;99.90;;;;;;5019947;28;20048;-81
2023/06/16 05:31:15;;;;;;;17.60;15.70;;;16.40;99.90;;;;;;5006658;28;20041;-80
2023/06/16 05:33:41;;;;;;;18.40;15.45;;;16.40;99.90;;;;;;5027533;28;20048;-80
2023/06/16 05:36:07;;;;;;;16.55;14.82;;;16.40;99.90;;;;;;5015441;28;20044;-81
2023/06/16 05:38:33;;;;;;;17.98;15.25;;;16.50;99.90;;;;;;5028692;28;20045;-80
2023/06/16 05:40:58;;;;;;;16.83;14.35;;;16.50;99.90;;;;;;5012043;28;20121;-80
2023/06/16 05:43:24;;;;;;;17.80;14.20;;;16.60;99.90;;;;;;5016925;28;20576;-81
2023/06/16 05:45:50;;;;;;;16.23;14.43;;;16.70;99.90;;;;;;5016841;28;20041;-80
2023/06/16 05:48:19;;;;;;;18.40;14.57;;;16.80;99.90;;;;;;5043183;28;20527;-80
2023/06/16 05:50:45;;;;;;;15.40;13.77;;;16.90;99.90;;;;;;5030974;28;20105;-80
2023/06/16 05:53:11;;;;;;;17.23;15.38;;;17.10;99.90;;;;;;5010388;28;20049;-79
2023/06/16 05:55:37;;;;;;;16.38;14.68;;;17.10;99.90;;;;;;5040261;28;20084;-79
2023/06/16 05:58:03;;;;;;;15.88;13.77;;;17.30;99.90;;;;;;5033707;28;20048;-79
2023/06/16 06:00:28;;;;;;;15.02;13.45;;;17.40;99.90;;;;;;5029371;28;20487;-80
2023/06/16 06:02:54;;;;;;;16.63;13.07;;;17.40;99.90;;;;;;5027536;28;20044;-79
2023/06/16 06:05:20;;;;;;;15.38;13.38;;;17.50;99.90;;;;;;5061359;28;20056;-81
2023/06/16 06:07:45;;;;;;;16.70;13.68;;;17.70;99.90;;;;;;5022386;28;20055;-79
2023/06/16 06:10:11;;;;;;;14.63;12.98;;;17.70;99.90;;;;;;5042754;28;20053;-79
2023/06/16 06:12:37;;;;;;;17.60;13.70;;;17.80;99.90;;;;;;5041363;28;20067;-79
2023/06/16 06:15:03;;;;;;;14.43;13.02;;;17.90;99.90;;;;;;5047544;28;20049;-80
2023/06/16 06:17:29;;;;;;;13.95;12.45;;;18.00;99.90;;;;;;5052631;28;20045;-80
2023/06/16 06:19:55;;;;;;;12.05;10.93;;;18.20;99.90;;;;;;5019370;28;20086;-78
2023/06/16 06:22:21;;;;;;;13.18;11.77;;;18.30;99.90;;;;;;5038220;28;20056;-78
2023/06/16 06:24:46;;;;;;;13.52;11.82;;;18.40;99.90;;;;;;5018870;28;20539;-78
2023/06/16 06:27:12;;;;;;;12.15;10.95;;;18.60;99.90;;;;;;4994934;28;20434;-79
2023/06/16 06:29:38;;;;;;;10.77;9.63;;;18.80;99.90;;;;;;4996555;28;20042;-79
2023/06/16 06:32:07;;;;;;;12.18;9.80;;;18.80;99.90;;;;;;5036110;28;20036;-79
2023/06/16 06:34:34;;;;;;;11.10;9.90;;;19.00;99.90;;;;;;5034898;28;20116;-79
2023/06/16 06:37:00;;;;;;;10.77;9.65;;;19.10;99.90;;;;;;5037274;28;20084;-79
2023/06/16 06:39:26;;;;;;;11.25;9.85;;;19.10;99.90;;;;;;5039969;28;20040;-79
2023/06/16 06:41:51;;;;;;;11.52;10.38;;;19.20;99.90;;;;;;5035250;28;20096;-78
2023/06/16 06:44:17;;;;;;;10.55;9.45;;;19.30;99.90;;;;;;5049099;28;20089;-78
2023/06/16 06:46:43;;;;;;;10.27;9.05;;;19.40;99.90;;;;;;5069406;28;20070;-78
2023/06/16 06:49:08;;;;;;;11.07;9.30;;;19.40;99.90;;;;;;5041427;28;20049;-79
2023/06/16 06:51:35;;;;;;;9.90;8.90;;;19.50;99.90;;;;;;5043041;28;20049;-79
2023/06/16 06:54:01;;;;;;;11.60;10.35;;;19.70;99.90;;;;;;5031766;28;20580;-79
2023/06/16 06:56:27;;;;;;;10.35;9.35;;;19.90;99.90;;;;;;5047981;28;20060;-78
2023/06/16 06:58:52;;;;;;;10.20;9.15;;;20.00;99.90;;;;;;5036016;28;20074;-78
2023/06/16 07:01:18;;;;;;;10.68;9.57;;;20.00;99.90;;;;;;5064067;28;20079;-78
2023/06/16 07:03:44;;;;;;;15.55;9.02;;;20.20;99.90;;;;;;5041529;28;20055;-76
2023/06/16 07:06:10;;;;;;;10.48;9.38;;;20.30;99.90;;;;;;5047332;28;20523;-84
2023/06/16 07:08:35;;;;;;;9.63;8.73;;;20.30;99.90;;;;;;5016897;28;20052;-80
2023/06/16 07:11:01;;;;;;;8.93;8.05;;;20.40;99.90;;;;;;5046280;28;20064;-75
2023/06/16 07:13:27;;;;;;;9.85;8.95;;;20.50;99.90;;;;;;5057176;28;20073;-77
2023/06/16 07:15:53;;;;;;;9.25;8.35;;;20.60;99.90;;;;;;4989268;28;20127;-79
2023/06/16 07:18:18;;;;;;;9.80;8.80;;;20.70;99.90;;;;;;5004006;28;20558;-78
2023/06/16 07:20:44;;;;;;;9.63;8.63;;;20.90;99.90;;;;;;5045165;28;20051;-78
2023/06/16 07:23:10;;;;;;;8.82;7.93;;;21.00;99.90;;;;;;5046364;28;20470;-78
2023/06/16 07:25:36;;;;;;;8.82;8.02;;;21.10;99.90;;;;;;5059898;28;20041;-79
2023/06/16 07:28:07;;;;;;;10.23;8.70;;;21.30;99.90;;;;;;5025398;28;20037;-79
2023/06/16 07:30:32;;;;;;;9.32;8.30;;;21.20;99.90;;;;;;5045831;28;20543;-78
2023/06/16 07:32:58;;;;;;;10.70;8.10;;;21.30;99.90;;;;;;5047618;28;20912;-80
2023/06/16 07:35:24;;;;;;;9.52;8.63;;;21.40;99.90;;;;;;5030021;28;20051;-78
2023/06/16 07:37:50;;;;;;;14.40;8.65;;;21.40;99.90;;;;;;5039489;28;20057;-77
2023/06/16 07:40:16;;;;;;;8.77;7.90;;;21.50;99.90;;;;;;4994007;28;20056;-78
2023/06/16 07:42:45;;;;;;;11.90;7.72;;;21.50;99.90;;;;;;5024840;28;20041;-78
2023/06/16 07:45:12;;;;;;;8.32;7.20;;;21.70;99.90;;;;;;5047791;28;20025;-78
2023/06/16 07:47:39;;;;;;;8.20;7.50;;;21.80;99.90;;;;;;5029031;28;20029;-79
2023/06/16 07:50:07;;;;;;;9.40;7.35;;;21.70;99.90;;;;;;5029065;28;20055;-79
2023/06/16 07:52:33;;;;;;;7.85;7.07;;;21.80;99.90;;;;;;5033071;28;20063;-79
2023/06/16 07:54:58;;;;;;;8.20;7.50;;;21.80;99.90;;;;;;5049318;28;20056;-78
2023/06/16 07:57:24;;;;;;;9.05;8.25;;;21.90;99.90;;;;;;5027616;28;20048;-77
2023/06/16 07:59:50;;;;;;;9.32;8.27;;;21.90;99.90;;;;;;4999392;28;20072;-78
2023/06/16 08:02:15;;;;;;;7.90;6.90;;;21.90;99.90;;;;;;5027014;28;20111;-77
2023/06/16 08:04:41;;;;;;;9.55;7.57;;;22.00;99.90;;;;;;5030204;28;20063;-78
2023/06/16 08:07:07;;;;;;;8.82;7.95;;;22.10;99.90;;;;;;5050075;28;20032;-78
2023/06/16 08:09:32;;;;;;;7.75;7.05;;;22.30;99.90;;;;;;5048100;28;20040;-79
2023/06/16 08:11:58;;;;;;;7.63;6.93;;;22.40;99.90;;;;;;5047617;28;20048;-78
2023/06/16 08:14:24;;;;;;;7.70;6.82;;;22.40;99.90;;;;;;5009448;28;20048;-78
2023/06/16 08:16:50;;;;;;;8.63;7.75;;;22.40;99.90;;;;;;5002118;28;20049;-78
2023/06/16 08:19:15;;;;;;;7.88;6.93;;;22.50;99.90;;;;;;5033865;28;20036;-78
2023/06/16 08:21:41;;;;;;;9.23;8.00;;;22.60;99.90;;;;;;5050923;28;20108;-80
2023/06/16 08:24:07;;;;;;;8.18;7.38;;;22.60;99.90;;;;;;5045204;28;20485;-79
2023/06/16 08:26:32;;;;;;;9.30;6.97;;;22.50;99.90;;;;;;5048452;28;20046;-79
2023/06/16 08:28:58;;;;;;;7.30;6.55;;;22.50;99.90;;;;;;5012759;28;20040;-79
2023/06/16 08:31:25;;;;;;;7.20;6.57;;;22.50;99.90;;;;;;5046394;28;20056;-79
2023/06/16 08:33:51;;;;;;;8.55;7.43;;;22.60;99.90;;;;;;5013323;28;20045;-79
2023/06/16 08:36:17;;;;;;;9.13;8.23;;;22.60;99.90;;;;;;5045021;28;20037;-79
2023/06/16 08:38:43;;;;;;;8.48;7.68;;;22.50;99.90;;;;;;5032721;28;20032;-79
2023/06/16 08:41:10;;;;;;;8.35;7.55;;;22.70;99.90;;;;;;5008326;28;20581;-79
2023/06/16 08:43:37;;;;;;;9.80;8.15;;;22.80;99.90;;;;;;5048698;28;20048;-79
2023/06/16 08:46:10;;;;;;;9.32;8.38;;;22.80;99.90;;;;;;5060964;28;20041;-79
2023/06/16 08:48:39;;;;;;;8.65;7.75;;;22.90;99.90;;;;;;5029471;28;20063;-78
2023/06/16 08:51:09;;;;;;;10.27;7.10;;;22.90;99.90;;;;;;5063742;28;20040;-78
2023/06/16 08:53:36;;;;;;;9.20;8.38;;;23.20;99.90;;;;;;5042472;28;20076;-80
2023/06/16 08:56:05;;;;;;;10.43;8.48;;;23.10;99.90;;;;;;5048045;28;20047;-79
2023/06/16 08:58:32;;;;;;;9.07;8.25;;;23.10;99.90;;;;;;5046050;28;20112;-78
2023/06/16 09:00:59;;;;;;;8.60;7.82;;;23.10;99.90;;;;;;5010504;28;20048;-79
2023/06/16 09:03:26;;;;;;;8.10;7.28;;;23.10;99.90;;;;;;5014087;28;20048;-78
2023/06/16 09:05:52;;;;;;;7.65;6.95;;;23.30;99.90;;;;;;5046489;28;20049;-79
2023/06/16 09:08:19;;;;;;;13.13;7.55;;;23.40;99.90;;;;;;5032034;28;20040;-79
2023/06/16 09:10:54;;;;;;;9.15;7.10;;;23.40;99.90;;;;;;5046200;28;20049;-78
2023/06/16 09:13:20;;;;;;;8.88;8.05;;;23.30;99.90;;;;;;5046160;28;20044;-79
2023/06/16 09:15:48;;;;;;;9.30;6.85;;;23.40;99.90;;;;;;5047628;28;20055;-80
2023/06/16 09:18:15;;;;;;;6.40;5.80;;;23.50;99.90;;;;;;5058822;28;20479;-80
2023/06/16 09:20:41;;;;;;;6.68;6.03;;;23.60;99.90;;;;;;5024008;28;20057;-78
2023/06/16 09:23:08;;;;;;;6.45;5.75;;;23.70;99.90;;;;;;5033728;28;20026;-78
2023/06/16 09:25:35;;;;;;;6.68;6.18;;;23.80;99.90;;;;;;5019458;28;20701;-77
2023/06/16 09:28:09;;;;;;;17.55;6.75;;;23.90;99.90;;;;;;5001401;28;20109;-79
2023/06/16 09:30:35;;;;;;;6.75;5.80;;;24.00;91.70;;;;;;5009171;28;20079;-78
2023/06/16 09:33:02;;;;;;;6.35;5.75;;;24.10;97.60;;;;;;5010133;28;20048;-79
2023/06/16 09:35:30;;;;;;;6.22;5.63;;;24.10;92.80;;;;;;5015383;28;20623;-80
2023/06/16 09:37:59;;;;;;;10.30;6.00;;;23.90;86.40;;;;;;5032219;28;20050;-78
2023/06/16 09:40:33;;;;;;;6.43;5.72;;;24.00;87.40;;;;;;5028747;28;20100;-79
2023/06/16 09:43:00;;;;;;;5.07;4.57;;;24.00;85.00;;;;;;5023124;28;20110;-78
2023/06/16 09:45:29;;;;;;;8.88;5.60;;;24.10;83.80;;;;;;5029009;28;20048;-78
2023/06/16 09:47:56;;;;;;;5.90;4.85;;;24.30;80.30;;;;;;5029179;28;20042;-78
2023/06/16 09:50:25;;;;;;;5.95;4.82;;;24.40;75.80;;;;;;5031077;28;20088;-80
2023/06/16 09:52:53;;;;;;;4.88;4.45;;;24.30;69.90;;;;;;5012263;28;20514;-78
2023/06/16 09:55:19;;;;;;;4.90;4.25;;;24.20;69.30;;;;;;5000300;28;20057;-80
2023/06/16 09:57:46;;;;;;;4.72;4.30;;;24.30;67.50;;;;;;5027117;28;20051;-79
2023/06/16 10:00:16;;;;;;;4.60;4.00;;;24.40;66.00;;;;;;5046587;28;20397;-78
2023/06/16 10:02:43;;;;;;;5.03;4.47;;;24.60;65.80;;;;;;5027995;28;20048;-74
2023/06/16 10:05:14;;;;;;;4.50;4.07;;;24.80;65.50;;;;;;5024168;28;20041;-78
2023/06/16 10:07:45;;;;;;;5.20;3.90;;;25.00;64.40;;;;;;5036424;28;21074;-79
2023/06/16 10:10:11;;;;;;;4.95;4.05;;;24.90;61.40;;;;;;5020992;28;20052;-78
2023/06/16 10:12:49;;;;;;;4.88;4.20;;;24.90;61.50;;;;;;5006491;28;20045;-79
2023/06/16 10:15:25;;;;;;;4.10;3.70;;;24.80;60.50;;;;;;5050567;28;20071;-78
2023/06/16 10:17:57;;;;;;;5.32;4.25;;;24.90;60.10;;;;;;5056539;28;20059;-78
2023/06/16 10:20:24;;;;;;;;;;;25.00;59.80;;;;;;5059190;28;20037;-78
2023/06/16 10:22:50;;;;;;;4.10;3.70;;;24.90;58.20;;;;;;5030183;28;20019;-76
2023/06/16 10:25:16;;;;;;;4.00;3.63;;;24.70;58.90;;;;;;5041085;28;20037;-77
2023/06/16 10:27:43;;;;;;;4.75;4.05;;;24.80;58.60;;;;;;5037793;28;20048;-79
2023/06/16 10:30:16;;;;;;;4.60;4.05;;;24.60;58.60;;;;;;5027701;28;20041;-78
2023/06/16 10:32:48;;;;;;;5.32;3.83;;;24.70;58.80;;;;;;5039596;28;20078;-78
2023/06/16 10:35:16;;;;;;;64.15;9.48;;;24.80;58.70;;;;;;5019567;28;20049;-78
2023/06/16 10:37:42;;;;;;;5.10;4.00;;;25.00;59.00;;;;;;5055950;28;20045;-78
2023/06/16 10:40:12;;;;;;;4.43;4.03;;;25.00;58.90;;;;;;5004339;28;20048;-78
2023/06/16 10:42:40;;;;;;;9.50;4.20;;;25.00;58.50;;;;;;5055024;28;20070;-80
2023/06/16 10:45:25;;;;;;;6.53;4.47;;;25.00;58.50;;;;;;5034398;28;20045;-78
2023/06/16 10:47:56;;;;;;;6.90;4.28;;;24.70;57.90;;;;;;5033185;28;20043;-77
2023/06/16 10:50:40;;;;;;;4.33;3.83;;;24.70;59.30;;;;;;5062061;28;20040;-78
2023/06/16 10:53:13;;;;;;;4.65;3.65;;;24.80;59.00;;;;;;5035222;28;20292;-77
2023/06/16 10:55:41;;;;;;;4.00;3.63;;;25.00;59.80;;;;;;5044177;28;20053;-79
2023/06/16 10:58:16;;;;;;;4.47;3.63;;;25.10;59.20;;;;;;5036698;28;20059;-79
2023/06/16 11:01:01;;;;;;;4.20;3.80;;;25.30;58.30;;;;;;5035217;28;20056;-78
2023/06/16 11:03:35;;;;;;;6.15;4.30;;;25.30;59.00;;;;;;5017274;28;20045;-80
2023/06/16 11:06:02;;;;;;;4.95;4.10;;;25.30;57.40;;;;;;4995414;28;20095;-79
2023/06/16 11:08:28;;;;;;;6.18;3.85;;;25.20;58.30;;;;;;5051488;28;20450;-79
2023/06/16 11:11:05;;;;;;;4.18;3.70;;;25.20;58.10;;;;;;5049203;28;20104;-77
2023/06/16 11:13:35;;;;;;;4.20;3.90;;;25.20;58.00;;;;;;5053795;28;20057;-78
2023/06/16 11:16:01;;;;;;;5.00;4.13;;;25.20;57.50;;;;;;5037380;28;20072;-78
2023/06/16 11:18:29;;;;;;;4.53;4.05;;;25.30;57.50;;;;;;5054883;28;20047;-78
2023/06/16 11:20:56;;;;;;;4.30;3.90;;;25.30;57.20;;;;;;5057746;28;20087;-76
2023/06/16 11:23:22;;;;;;;4.20;3.80;;;25.50;57.80;;;;;;5016042;28;20108;-78
2023/06/16 11:25:52;;;;;;;5.60;3.92;;;25.60;57.20;;;;;;5021728;28;20044;-78
2023/06/16 11:28:21;;;;;;;4.53;3.92;;;25.50;56.80;;;;;;5057981;28;20056;-76
2023/06/16 11:30:48;;;;;;;7.65;4.45;;;25.70;56.50;;;;;;5040062;28;20465;-78
2023/06/16 11:33:19;;;;;;;6.38;4.13;;;25.50;55.90;;;;;;5032927;28;20165;-79
2023/06/16 11:35:45;;;;;;;4.82;4.32;;;25.40;55.40;;;;;;5044237;28;20048;-78
2023/06/16 11:38:11;;;;;;;5.10;4.25;;;25.30;55.40;;;;;;5068514;28;20535;-77
2023/06/16 11:40:36;;;;;;;5.07;4.18;;;25.40;56.40;;;;;;5050277;28;20049;-77
2023/06/16 11:43:07;;;;;;;4.10;3.70;;;25.50;56.00;;;;;;5042793;28;20251;-78
2023/06/16 11:45:36;;;;;;;4.43;4.00;;;25.60;55.60;;;;;;5030579;28;20040;-78
2023/06/16 11:48:04;;;;;;;7.00;4.13;;;25.80;55.40;;;;;;5063769;28;20036;-75
2023/06/16 11:50:30;;;;;;;6.45;4.10;;;25.80;55.60;;;;;;5067687;28;20051;-76
2023/06/16 11:52:57;;;;;;;10.13;4.65;;;25.80;55.20;;;;;;5040827;28;20051;-80
2023/06/16 11:55:24;;;;;;;4.60;4.18;;;25.70;54.90;;;;;;5045319;28;20055;-79
2023/06/16 11:57:50;;;;;;;4.65;4.28;;;25.60;54.90;;;;;;5041728;28;20056;-80
2023/06/16 12:00:17;;;;;;;5.95;4.20;;;25.60;55.10;;;;;;5047497;28;20033;-78
2023/06/16 12:02:45;;;;;;;4.75;4.20;;;25.50;54.90;;;;;;5040991;28;20056;-78
2023/06/16 12:05:19;;;;;;;4.30;3.53;;;25.60;55.30;;;;;;5042410;28;20042;-81
2023/06/16 12:07:46;;;;;;;5.28;4.30;;;25.80;55.00;;;;;;5043590;28;20048;-78
2023/06/16 12:10:11;;;;;;;4.30;3.90;;;25.70;54.80;;;;;;5040511;28;20038;-79
2023/06/16 12:12:38;;;;;;;4.32;3.92;;;25.60;55.00;;;;;;5030069;28;20037;-79
2023/06/16 12:15:04;;;;;;;4.53;4.03;;;25.70;55.60;;;;;;5038686;28;20763;-81
2023/06/16 12:17:33;;;;;;;5.88;4.05;;;25.70;55.10;;;;;;5052192;28;20033;-79
2023/06/16 12:20:01;;;;;;;7.60;3.90;;;25.90;55.70;;;;;;5025575;28;20161;-80
2023/06/16 12:22:39;;;;;;;16.42;4.88;;;26.10;55.00;;;;;;5026655;28;20049;-79
2023/06/16 12:25:13;;;;;;;4.28;3.88;;;26.10;54.20;;;;;;5026950;28;20045;-79
2023/06/16 12:27:42;;;;;;;5.05;3.70;;;25.80;54.00;;;;;;5033764;28;20033;-80
2023/06/16 12:30:08;;;;;;;4.35;3.42;;;25.80;54.30;;;;;;5035085;28;20366;-78
2023/06/16 12:32:34;;;;;;;4.75;4.07;;;25.80;54.50;;;;;;5014527;28;20050;-81
2023/06/16 12:35:01;;;;;;;4.30;3.90;;;25.90;53.50;;;;;;5032640;28;20123;-81
2023/06/16 12:37:30;;;;;;;3.95;3.47;;;25.70;53.70;;;;;;5034836;28;20052;-79
2023/06/16 12:40:10;;;;;;;4.03;3.50;;;25.60;53.80;;;;;;5036113;28;20583;-82
2023/06/16 12:42:37;;;;;;;4.60;3.70;;;25.50;54.30;;;;;;5019639;28;20412;-86